createdAt,value
2018-02-08T00:00:14.092Z,35.00
2018-02-08T00:02:42.404Z,33.83
2018-02-08T00:05:09.971Z,34.00
2018-02-08T00:07:38.274Z,35.40
2018-02-08T00:10:06.612Z,32.80
2018-02-08T00:12:34.159Z,32.80
2018-02-08T00:15:02.508Z,35.00
2018-02-08T00:17:30.061Z,35.90
2018-02-08T00:19:57.655Z,34.40
2018-02-08T00:22:36.969Z,34.00
2018-02-08T00:25:04.588Z,35.90
2018-02-08T00:27:32.131Z,35.60
2018-02-08T00:29:59.724Z,35.70
2018-02-08T00:32:27.283Z,40.00
2018-02-08T00:34:54.868Z,37.57
2018-02-08T00:37:22.428Z,38.53
2018-02-08T00:39:49.968Z,37.70
2018-02-08T00:42:17.535Z,39.20
2018-02-08T00:44:45.168Z,38.60
2018-02-08T00:47:12.728Z,32.90
2018-02-08T00:49:41.044Z,33.20
2018-02-08T00:52:09.401Z,36.50
2018-02-08T00:54:36.978Z,38.07
2018-02-08T00:57:04.585Z,36.60
2018-02-08T00:59:32.140Z,34.63
2018-02-08T01:01:59.776Z,40.60
2018-02-08T01:04:28.093Z,38.73
2018-02-08T01:06:55.667Z,38.40
2018-02-08T01:09:23.983Z,35.77
2018-02-08T01:11:51.565Z,36.53
2018-02-08T01:14:19.143Z,39.43
2018-02-08T01:16:46.828Z,39.10
2018-02-08T01:19:14.431Z,40.10
2018-02-08T01:21:42.743Z,37.17
2018-02-08T01:24:10.314Z,39.13
2018-02-08T01:26:37.864Z,37.60
2018-02-08T01:29:05.428Z,38.60
2018-02-08T01:31:33.020Z,39.57
2018-02-08T01:34:00.604Z,37.93
2018-02-08T01:36:28.176Z,40.27
2018-02-08T01:38:56.552Z,39.27
2018-02-08T01:41:24.112Z,40.40
2018-02-08T01:43:51.691Z,39.90
2018-02-08T01:46:19.253Z,38.20
2018-02-08T01:48:46.818Z,37.37
2018-02-08T01:51:14.384Z,36.93
2018-02-08T01:53:41.961Z,35.33
2018-02-08T01:56:09.520Z,36.77
2018-02-08T01:58:37.099Z,35.77
2018-02-08T02:01:04.694Z,34.23
2018-02-08T02:03:32.289Z,35.77
2018-02-08T02:05:59.856Z,34.97
2018-02-08T02:08:27.425Z,35.43
2018-02-08T02:10:55.011Z,33.50
2018-02-08T02:13:22.567Z,33.63
2018-02-08T02:15:50.139Z,32.57
2018-02-08T02:18:17.691Z,30.03
2018-02-08T02:20:45.259Z,27.70
2018-02-08T02:23:12.812Z,27.97
2018-02-08T02:25:41.188Z,32.83
2018-02-08T02:28:08.759Z,32.10
2018-02-08T02:30:36.341Z,34.70
2018-02-08T02:33:03.925Z,34.93
2018-02-08T02:35:31.500Z,34.23
2018-02-08T02:37:59.059Z,31.97
2018-02-08T02:40:26.641Z,33.40
2018-02-08T02:42:54.204Z,32.93
2018-02-08T02:45:21.782Z,31.57
2018-02-08T02:47:49.338Z,32.37
2018-02-08T02:50:16.924Z,33.20
2018-02-08T02:52:44.492Z,34.47
2018-02-08T02:55:12.072Z,31.60
2018-02-08T02:57:45.819Z,34.33
2018-02-08T03:00:13.396Z,35.80
2018-02-08T03:02:40.972Z,34.10
2018-02-08T03:05:08.523Z,32.27
2018-02-08T03:07:36.858Z,29.57
2018-02-08T03:10:04.412Z,30.40
2018-02-08T03:12:32.755Z,33.43
2018-02-08T03:15:00.314Z,31.27
2018-02-08T03:17:27.883Z,32.63
2018-02-08T03:19:56.293Z,30.30
2018-02-08T03:22:23.858Z,30.60
2018-02-08T03:24:52.183Z,30.07
2018-02-08T03:27:19.754Z,30.77
2018-02-08T03:29:48.086Z,32.97
2018-02-08T03:32:15.659Z,29.60
2018-02-08T03:34:43.202Z,30.77
2018-02-08T03:37:10.839Z,32.93
2018-02-08T03:39:38.392Z,28.33
2018-02-08T03:42:06.727Z,28.47
2018-02-08T03:44:34.275Z,29.93
2018-02-08T03:47:02.595Z,32.70
2018-02-08T03:49:30.167Z,29.37
2018-02-08T03:51:58.480Z,27.87
2018-02-08T03:54:26.060Z,31.00
2018-02-08T03:56:53.604Z,30.67
2018-02-08T03:59:21.210Z,25.97
2018-02-08T04:01:49.523Z,29.20
2018-02-08T04:04:17.968Z,28.40
2018-02-08T04:06:46.288Z,29.00
2018-02-08T04:09:14.627Z,28.87
2018-02-08T04:11:42.943Z,28.00
2018-02-08T04:14:10.528Z,30.47
2018-02-08T04:16:38.084Z,32.70
2018-02-08T04:19:05.664Z,31.73
2018-02-08T04:21:33.227Z,26.37
2018-02-08T04:24:00.796Z,25.03
2018-02-08T04:26:28.344Z,23.80
2018-02-08T04:28:55.928Z,31.83
2018-02-08T04:31:23.471Z,31.07
2018-02-08T04:33:51.093Z,33.00
2018-02-08T04:36:18.660Z,30.23
2018-02-08T04:38:59.255Z,31.70
2018-02-08T04:41:39.415Z,28.20
2018-02-08T04:44:24.735Z,27.77
2018-02-08T04:47:05.020Z,27.47
2018-02-08T04:49:33.359Z,27.50
2018-02-08T04:52:00.913Z,27.47
2018-02-08T04:54:29.250Z,27.80
2018-02-08T04:56:56.800Z,29.33
2018-02-08T04:59:25.155Z,26.77
2018-02-08T05:01:52.712Z,28.40
2018-02-08T05:04:20.267Z,27.40
2018-02-08T05:06:47.835Z,27.90
2018-02-08T05:09:15.427Z,28.40
2018-02-08T05:11:42.991Z,26.90
2018-02-08T05:14:10.605Z,28.83
2018-02-08T05:16:38.205Z,26.93
2018-02-08T05:19:06.526Z,25.10
2018-02-08T05:21:34.101Z,25.10
2018-02-08T05:24:01.794Z,26.97
2018-02-08T05:26:29.371Z,28.00
2018-02-08T05:28:56.929Z,28.20
2018-02-08T05:31:25.260Z,25.90
2018-02-08T05:33:52.807Z,30.57
2018-02-08T05:36:20.371Z,27.70
2018-02-08T05:38:47.915Z,24.97
2018-02-08T05:41:15.494Z,27.43
2018-02-08T05:43:43.815Z,25.10
2018-02-08T05:46:11.434Z,28.27
2018-02-08T05:48:38.982Z,26.30
2018-02-08T05:51:06.550Z,24.73
2018-02-08T05:53:34.144Z,25.40
2018-02-08T05:56:01.716Z,24.90
2018-02-08T05:58:29.266Z,23.90
2018-02-08T06:00:56.838Z,29.33
2018-02-08T06:03:24.394Z,27.93
2018-02-08T06:05:51.944Z,30.80
2018-02-08T06:08:20.288Z,30.60
2018-02-08T06:10:47.837Z,30.07
2018-02-08T06:13:15.407Z,30.30
2018-02-08T06:15:43.723Z,29.90
2018-02-08T06:18:11.290Z,27.97
2018-02-08T06:20:39.602Z,26.00
2018-02-08T06:23:07.951Z,25.00
2018-02-08T06:25:35.496Z,23.80
2018-02-08T06:28:03.063Z,23.97
2018-02-08T06:30:30.608Z,25.07
2018-02-08T06:32:58.177Z,27.70
2018-02-08T06:35:25.718Z,23.80
2018-02-08T06:37:54.059Z,25.90
2018-02-08T06:40:21.615Z,20.80
2018-02-08T06:42:49.187Z,27.10
2018-02-08T06:45:17.500Z,25.83
2018-02-08T06:47:45.835Z,23.17
2018-02-08T06:50:13.388Z,26.53
2018-02-08T06:52:40.983Z,23.97
2018-02-08T06:55:08.544Z,24.20
2018-02-08T06:57:36.893Z,22.20
2018-02-08T07:00:04.466Z,23.17
2018-02-08T07:02:32.012Z,21.83
2018-02-08T07:04:59.608Z,21.33
2018-02-08T07:07:27.931Z,21.00
2018-02-08T07:09:55.500Z,23.40
2018-02-08T07:12:23.835Z,24.20
2018-02-08T07:14:51.415Z,27.77
2018-02-08T07:17:19.233Z,25.53
2018-02-08T07:19:46.784Z,23.33
2018-02-08T07:22:14.334Z,19.63
2018-02-08T07:24:42.668Z,22.73
2018-02-08T07:27:10.220Z,23.73
2018-02-08T07:29:38.559Z,23.00
2018-02-08T07:32:06.107Z,22.17
2018-02-08T07:34:34.441Z,22.90
2018-02-08T07:37:01.995Z,23.63
2018-02-08T07:39:30.354Z,21.57
2018-02-08T07:41:57.900Z,21.83
2018-02-08T07:44:25.443Z,23.20
2018-02-08T07:46:53.008Z,21.07
2018-02-08T07:49:20.556Z,21.37
2018-02-08T07:51:48.119Z,20.30
2018-02-08T07:54:16.442Z,21.50
2018-02-08T07:56:44.027Z,17.67
2018-02-08T07:59:11.585Z,19.60
2018-02-08T08:01:39.915Z,19.17
2018-02-08T08:04:07.458Z,19.77
2018-02-08T08:06:35.024Z,22.40
2018-02-08T08:09:02.586Z,22.87
2018-02-08T08:11:30.147Z,24.53
2018-02-08T08:13:57.695Z,25.93
2018-02-08T08:16:25.263Z,27.90
2018-02-08T08:18:53.572Z,25.53
2018-02-08T08:21:21.165Z,28.27
2018-02-08T08:23:48.699Z,25.87
2018-02-08T08:26:16.266Z,24.20
2018-02-08T08:28:43.815Z,23.47
2018-02-08T08:31:11.403Z,24.20
2018-02-08T08:33:38.947Z,29.30
2018-02-08T08:36:06.500Z,30.10
2018-02-08T08:38:34.063Z,30.20
2018-02-08T08:41:02.379Z,31.23
2018-02-08T08:43:30.708Z,28.17
2018-02-08T08:45:58.248Z,28.20
2018-02-08T08:48:26.583Z,27.80
2018-02-08T08:50:54.123Z,29.13
2018-02-08T08:53:21.715Z,29.83
2018-02-08T08:55:49.261Z,30.97
2018-02-08T08:58:16.827Z,28.70
2018-02-08T09:00:44.371Z,29.03
2018-02-08T09:03:12.705Z,28.67
2018-02-08T09:05:40.239Z,26.60
2018-02-08T09:08:07.802Z,27.67
2018-02-08T09:10:35.339Z,27.50
2018-02-08T09:13:03.667Z,25.50
2018-02-08T09:15:31.218Z,26.47
2018-02-08T09:17:59.572Z,29.17
2018-02-08T09:20:27.123Z,27.80
2018-02-08T09:22:54.665Z,26.40
2018-02-08T09:25:22.225Z,27.53
2018-02-08T09:27:49.772Z,25.67
2018-02-08T09:30:17.341Z,23.90
2018-02-08T09:32:45.663Z,24.53
2018-02-08T09:35:13.227Z,22.93
2018-02-08T09:37:41.564Z,24.10
2018-02-08T09:40:09.125Z,22.97
2018-02-08T09:42:37.431Z,21.40
2018-02-08T09:45:05.008Z,23.17
2018-02-08T09:47:32.544Z,23.03
2018-02-08T09:50:00.103Z,20.83
2018-02-08T09:52:27.645Z,19.03
2018-02-08T09:54:55.972Z,20.13
2018-02-08T09:57:23.515Z,19.73
2018-02-08T09:59:51.079Z,19.47
2018-02-08T10:02:18.640Z,19.77
2018-02-08T10:04:46.207Z,19.33
2018-02-08T10:07:13.751Z,20.07
2018-02-08T10:09:41.307Z,20.30
2018-02-08T10:12:08.850Z,19.73
2018-02-08T10:14:37.192Z,20.63
2018-02-08T10:17:04.747Z,20.83
2018-02-08T10:19:32.295Z,19.83
2018-02-08T10:22:00.619Z,19.70
2018-02-08T10:24:28.923Z,19.83
2018-02-08T10:26:56.491Z,22.23
2018-02-08T10:29:24.804Z,21.80
2018-02-08T10:31:53.135Z,20.57
2018-02-08T10:34:20.732Z,20.70
2018-02-08T10:36:48.263Z,21.63
2018-02-08T10:39:16.571Z,23.43
2018-02-08T10:41:44.918Z,21.77
2018-02-08T10:44:12.471Z,23.00
2018-02-08T10:46:40.125Z,22.10
2018-02-08T10:49:07.654Z,23.00
2018-02-08T10:51:35.228Z,20.97
2018-02-08T10:54:02.784Z,23.67
2018-02-08T10:56:31.126Z,21.90
2018-02-08T10:58:58.666Z,23.67
2018-02-08T11:01:26.204Z,21.67
2018-02-08T11:03:53.787Z,21.93
2018-02-08T11:06:21.333Z,22.20
2018-02-08T11:08:49.659Z,21.07
2018-02-08T11:11:17.244Z,21.80
2018-02-08T11:13:45.545Z,21.50
2018-02-08T11:16:13.080Z,22.60
2018-02-08T11:18:40.636Z,22.50
2018-02-08T11:21:08.170Z,21.50
2018-02-08T11:23:36.507Z,23.03
2018-02-08T11:26:04.040Z,22.07
2018-02-08T11:28:31.599Z,22.30
2018-02-08T11:30:59.140Z,22.10
2018-02-08T11:33:26.698Z,22.83
2018-02-08T11:35:55.054Z,22.40
2018-02-08T11:38:22.592Z,21.63
2018-02-08T11:40:50.910Z,25.13
2018-02-08T11:43:18.468Z,18.80
2018-02-08T11:45:46.016Z,19.03
2018-02-08T11:48:13.576Z,16.07
2018-02-08T11:50:41.109Z,17.00
2018-02-08T11:53:09.447Z,16.13
2018-02-08T11:55:36.991Z,15.23
2018-02-08T11:58:04.537Z,16.50
2018-02-08T12:00:32.134Z,15.73
2018-02-08T12:02:59.687Z,14.13
2018-02-08T12:05:27.240Z,13.17
2018-02-08T12:07:54.783Z,13.60
2018-02-08T12:10:22.347Z,13.63
2018-02-08T12:12:49.887Z,13.37
2018-02-08T12:15:18.079Z,13.87
2018-02-08T12:17:46.415Z,14.50
2018-02-08T12:20:14.764Z,15.97
2018-02-08T12:22:42.304Z,15.27
2018-02-08T12:25:09.861Z,15.93
2018-02-08T12:27:38.168Z,15.87
2018-02-08T12:30:06.519Z,14.30
2018-02-08T12:32:34.075Z,14.10
2018-02-08T12:35:01.626Z,13.80
2018-02-08T12:37:29.164Z,16.17
2018-02-08T12:39:56.720Z,14.90
2018-02-08T12:42:25.032Z,14.57
2018-02-08T12:44:52.606Z,15.43
2018-02-08T12:47:20.916Z,13.20
2018-02-08T12:49:49.060Z,13.03
2018-02-08T12:52:16.636Z,12.40
2018-02-08T12:54:44.180Z,15.30
2018-02-08T12:57:11.731Z,15.20
2018-02-08T12:59:39.275Z,13.30
2018-02-08T13:02:06.867Z,14.20
2018-02-08T13:04:34.411Z,14.30
2018-02-08T13:07:01.978Z,13.43
2018-02-08T13:09:30.297Z,13.70
2018-02-08T13:11:57.851Z,15.27
2018-02-08T13:14:25.395Z,16.90
2018-02-08T13:16:52.959Z,18.30
2018-02-08T13:19:20.499Z,20.70
2018-02-08T13:21:48.055Z,18.07
2018-02-08T13:24:15.597Z,17.03
2018-02-08T13:26:43.925Z,19.50
2018-02-08T13:29:11.492Z,20.57
2018-02-08T13:31:40.664Z,19.93
2018-02-08T13:34:08.210Z,19.53
2018-02-08T13:36:38.273Z,18.40
2018-02-08T13:39:05.821Z,20.00
2018-02-08T13:41:33.404Z,18.70
2018-02-08T13:44:00.939Z,19.70
2018-02-08T13:46:28.488Z,18.00
2018-02-08T13:48:56.058Z,19.37
2018-02-08T13:54:32.821Z,19.87
2018-02-08T14:00:24.420Z,21.57
2018-02-08T14:03:00.488Z,21.10
2018-02-08T14:05:28.434Z,20.40
2018-02-08T14:07:56.004Z,22.13
2018-02-08T14:10:23.536Z,23.97
2018-02-08T14:12:51.855Z,22.27
2018-02-08T14:15:20.395Z,21.27
2018-02-08T14:17:50.195Z,21.30
2018-02-08T14:20:18.317Z,18.43
2018-02-08T14:22:45.897Z,19.90
2018-02-08T14:25:13.447Z,19.93
2018-02-08T14:27:41.792Z,18.97
2018-02-08T14:30:09.444Z,22.90
2018-02-08T14:32:36.996Z,19.90
2018-02-08T14:35:04.592Z,20.30
2018-02-08T14:37:32.197Z,22.33
2018-02-08T14:40:00.525Z,25.70
2018-02-08T14:42:28.832Z,25.20
2018-02-08T14:44:56.389Z,25.47
2018-02-08T14:47:23.926Z,25.77
2018-02-08T14:49:51.497Z,24.50
2018-02-08T14:52:19.028Z,23.57
2018-02-08T14:54:47.544Z,20.70
2018-02-08T14:57:15.843Z,24.10
2018-02-08T14:59:44.203Z,25.70
2018-02-08T15:02:11.747Z,24.07
2018-02-08T15:04:39.304Z,25.60
2018-02-08T15:07:07.614Z,26.97
2018-02-08T15:09:35.940Z,26.57
2018-02-08T15:12:03.507Z,25.67
2018-02-08T15:14:31.073Z,26.40
2018-02-08T15:16:59.376Z,26.70
2018-02-08T15:19:27.706Z,27.67
2018-02-08T15:21:55.271Z,27.10
2018-02-08T15:24:22.823Z,26.23
2018-02-08T15:26:50.394Z,28.87
2018-02-08T15:29:17.952Z,27.67
2018-02-08T15:31:45.515Z,28.13
2018-02-08T15:34:13.059Z,29.20
2018-02-08T15:36:40.627Z,26.83
2018-02-08T15:39:08.176Z,28.40
2018-02-08T15:41:35.749Z,27.93
2018-02-08T15:44:03.301Z,29.53
2018-02-08T15:46:30.859Z,25.70
2018-02-08T15:48:58.409Z,28.07
2018-02-08T15:51:25.976Z,27.07
2018-02-08T15:53:54.300Z,25.33
2018-02-08T15:56:21.864Z,39.10
2018-02-08T15:58:50.173Z,32.10
2018-02-08T16:01:17.749Z,29.33
2018-02-08T16:03:46.056Z,28.50
2018-02-08T16:06:14.360Z,29.87
2018-02-08T16:08:42.683Z,28.30
2018-02-08T16:11:10.221Z,28.23
2018-02-08T16:13:37.791Z,29.67
2018-02-08T16:16:05.338Z,30.13
2018-02-08T16:18:32.903Z,29.43
2018-02-08T16:21:01.249Z,24.47
2018-02-08T16:23:28.803Z,26.57
2018-02-08T16:25:56.375Z,29.10
2018-02-08T16:28:23.947Z,28.87
2018-02-08T16:30:52.256Z,33.07
2018-02-08T16:33:19.824Z,30.23
2018-02-08T16:35:48.135Z,30.80
2018-02-08T16:38:16.466Z,26.37
2018-02-08T16:40:44.019Z,25.23
2018-02-08T16:43:12.348Z,25.10
2018-02-08T16:45:39.886Z,23.33
2018-02-08T16:48:07.451Z,23.73
2018-02-08T16:50:34.999Z,25.00
2018-02-08T16:53:02.559Z,22.60
2018-02-08T16:55:30.873Z,24.07
2018-02-08T16:57:58.431Z,22.20
2018-02-08T17:00:26.797Z,24.37
2018-02-08T17:02:54.303Z,22.70
2018-02-08T17:05:21.864Z,22.07
2018-02-08T17:07:49.403Z,24.23
2018-02-08T17:10:16.984Z,23.20
2018-02-08T17:12:45.299Z,23.87
2018-02-08T17:15:12.854Z,24.37
2018-02-08T17:17:40.492Z,23.53
2018-02-08T17:20:08.059Z,25.53
2018-02-08T17:22:35.604Z,22.20
2018-02-08T17:25:03.931Z,20.53
2018-02-08T17:27:31.471Z,24.77
2018-02-08T17:29:59.035Z,25.43
2018-02-08T17:32:26.585Z,24.97
2018-02-08T17:34:54.151Z,24.43
2018-02-08T17:37:22.459Z,22.90
2018-02-08T17:39:50.783Z,20.87
2018-02-08T17:42:18.319Z,22.70
2018-02-08T17:44:45.884Z,25.00
2018-02-08T17:47:13.419Z,24.90
2018-02-08T17:49:41.019Z,24.47
2018-02-08T17:52:08.565Z,25.60
2018-02-08T17:54:36.143Z,23.27
2018-02-08T17:57:03.687Z,25.83
2018-02-08T17:59:31.227Z,21.63
2018-02-08T18:01:59.560Z,23.20
2018-02-08T18:04:27.107Z,24.70
2018-02-08T18:06:55.435Z,25.47
2018-02-08T18:09:22.983Z,25.10
2018-02-08T18:11:51.689Z,25.83
2018-02-08T18:14:19.541Z,24.27
2018-02-08T18:16:47.122Z,24.63
2018-02-08T18:19:14.663Z,22.43
2018-02-08T18:21:42.990Z,23.63
2018-02-08T18:24:10.531Z,23.90
2018-02-08T18:26:38.100Z,23.80
2018-02-08T18:29:05.646Z,22.87
2018-02-08T18:31:33.216Z,23.07
2018-02-08T18:34:01.531Z,23.40
2018-02-08T18:36:29.091Z,22.30
2018-02-08T18:38:57.391Z,21.03
2018-02-08T18:41:25.715Z,22.97
2018-02-08T18:43:53.255Z,21.47
2018-02-08T18:46:20.899Z,21.07
2018-02-08T18:48:48.439Z,20.50
2018-02-08T18:51:15.983Z,23.90
2018-02-08T18:53:43.548Z,23.57
2018-02-08T18:56:11.113Z,22.53
2018-02-08T18:58:38.690Z,23.10
2018-02-08T19:01:07.004Z,21.43
2018-02-08T19:03:34.592Z,23.30
2018-02-08T19:06:02.145Z,24.00
2018-02-08T19:08:29.702Z,22.17
2018-02-08T19:10:57.275Z,22.47
2018-02-08T19:13:24.843Z,23.37
2018-02-08T19:15:52.399Z,22.50
2018-02-08T19:18:20.727Z,21.30
2018-02-08T19:20:48.262Z,19.30
2018-02-08T19:23:15.819Z,22.97
2018-02-08T19:25:43.378Z,23.80
2018-02-08T19:28:10.947Z,23.20
2018-02-08T19:30:38.491Z,25.77
2018-02-08T19:33:06.219Z,23.83
2018-02-08T19:35:33.759Z,27.47
2018-02-08T19:38:01.333Z,26.83
2018-02-08T19:40:29.047Z,25.93
2018-02-08T19:42:56.612Z,25.80
2018-02-08T19:45:24.171Z,23.27
2018-02-08T19:47:51.707Z,24.63
2018-02-08T19:50:20.051Z,28.13
2018-02-08T19:52:47.612Z,27.13
2018-02-08T19:55:15.180Z,25.47
2018-02-08T19:57:42.766Z,25.07
2018-02-08T20:00:11.131Z,24.20
2018-02-08T20:02:38.672Z,24.27
2018-02-08T20:05:06.231Z,25.20
2018-02-08T20:07:34.550Z,25.57
2018-02-08T20:10:02.123Z,29.73
2018-02-08T20:12:30.432Z,26.43
2018-02-08T20:14:59.985Z,27.60
2018-02-08T20:17:27.557Z,27.07
2018-02-08T20:19:55.115Z,25.30
2018-02-08T20:22:23.431Z,26.90
2018-02-08T20:24:56.635Z,27.43
2018-02-08T20:27:24.383Z,26.03
2018-02-08T20:29:58.846Z,25.00
2018-02-08T20:32:27.024Z,25.20
2018-02-08T20:34:54.595Z,23.50
2018-02-08T20:37:22.143Z,26.03
2018-02-08T20:39:50.551Z,24.30
2018-02-08T20:42:23.754Z,23.93
2018-02-08T20:44:51.320Z,25.70
2018-02-08T20:47:18.876Z,26.67
2018-02-08T20:49:52.227Z,24.20
2018-02-08T20:52:19.784Z,25.00
2018-02-08T20:54:47.364Z,23.87
2018-02-08T20:57:14.927Z,22.50
2018-02-08T20:59:43.284Z,22.30
2018-02-08T21:02:10.856Z,22.10
2018-02-08T21:04:38.409Z,20.83
2018-02-08T21:07:06.808Z,23.70
2018-02-08T21:09:34.391Z,22.67
2018-02-08T21:12:01.962Z,25.50
2018-02-08T21:14:30.425Z,26.97
2018-02-08T21:16:57.986Z,25.10
2018-02-08T21:19:25.534Z,25.47
2018-02-08T21:21:53.102Z,28.90
2018-02-08T21:24:21.411Z,24.80
2018-02-08T21:26:49.748Z,22.87
2018-02-08T21:29:17.304Z,24.63
2018-02-08T21:31:45.640Z,23.67
2018-02-08T21:34:13.188Z,24.43
2018-02-08T21:36:40.730Z,22.90
2018-02-08T21:39:09.002Z,22.70
2018-02-08T21:41:36.641Z,23.03
2018-02-08T21:44:10.754Z,24.53
2018-02-08T21:46:43.076Z,24.17
2018-02-08T21:49:12.650Z,24.27
2018-02-08T21:51:40.471Z,24.93
2018-02-08T21:54:08.800Z,22.93
2018-02-08T21:56:37.111Z,22.33
2018-02-08T21:59:05.444Z,21.47
2018-02-08T22:01:32.987Z,23.23
2018-02-08T22:04:04.325Z,22.03
2018-02-08T22:06:38.154Z,22.63
2018-02-08T22:09:13.834Z,20.80
2018-02-08T22:11:41.883Z,21.30
2018-02-08T22:14:12.422Z,21.53
2018-02-08T22:16:42.208Z,23.57
2018-02-08T22:19:14.288Z,20.87
2018-02-08T22:21:44.953Z,21.13
2018-02-08T22:24:14.409Z,22.60
2018-02-08T22:26:43.003Z,23.10
2018-02-08T22:29:14.853Z,24.23
2018-02-08T22:31:43.099Z,22.77
2018-02-08T22:34:10.674Z,21.70
2018-02-08T22:36:38.217Z,19.73
2018-02-08T22:39:05.784Z,22.90
2018-02-08T22:41:34.136Z,22.77
2018-02-08T22:44:02.504Z,24.37
2018-02-08T22:46:30.071Z,24.57
2018-02-08T22:48:58.387Z,22.73
2018-02-08T22:51:25.955Z,22.43
2018-02-08T22:53:54.272Z,22.63
2018-02-08T22:56:21.847Z,24.00
2018-02-08T22:58:50.160Z,20.63
2018-02-08T23:01:17.738Z,21.50
2018-02-08T23:03:46.056Z,21.83
2018-02-08T23:06:13.658Z,20.00
2018-02-08T23:08:41.202Z,20.30
2018-02-08T23:11:09.535Z,19.80
2018-02-08T23:13:37.122Z,22.73
2018-02-08T23:16:04.805Z,23.40
2018-02-08T23:18:32.352Z,22.83
2018-02-08T23:21:00.691Z,21.73
2018-02-08T23:23:29.255Z,23.43
2018-02-08T23:25:56.905Z,25.23
2018-02-08T23:28:24.457Z,24.17
2018-02-08T23:30:52.036Z,22.37
2018-02-08T23:33:19.603Z,22.67
2018-02-08T23:35:47.941Z,22.33
2018-02-08T23:38:15.516Z,20.37
2018-02-08T23:40:43.071Z,21.07
2018-02-08T23:43:11.407Z,22.10
2018-02-08T23:45:38.967Z,22.73
2018-02-08T23:48:07.303Z,21.17
2018-02-08T23:50:34.862Z,23.30
2018-02-08T23:53:02.451Z,24.27
2018-02-08T23:55:30.013Z,23.80
2018-02-08T23:57:58.343Z,25.17
